sensor_id;sensor_type;location;lat;lon;timestamp;temperature;humidity
21033;DHT22;10675;47.976;7.824;2022-07-04T00:00:52;22.00;90.80
21033;DHT22;10675;47.976;7.824;2022-07-04T00:03:18;22.00;90.00
21033;DHT22;10675;47.976;7.824;2022-07-04T00:05:43;21.90;90.90
21033;DHT22;10675;47.976;7.824;2022-07-04T00:08:09;21.80;90.80
21033;DHT22;10675;47.976;7.824;2022-07-04T00:10:34;21.80;91.10
21033;DHT22;10675;47.976;7.824;2022-07-04T00:13:00;21.80;91.30
21033;DHT22;10675;47.976;7.824;2022-07-04T00:15:25;22.00;91.40
21033;DHT22;10675;47.976;7.824;2022-07-04T00:17:51;21.90;91.10
21033;DHT22;10675;47.976;7.824;2022-07-04T00:20:17;21.90;91.50
21033;DHT22;10675;47.976;7.824;2022-07-04T00:22:43;21.70;92.30
21033;DHT22;10675;47.976;7.824;2022-07-04T00:25:09;21.60;92.80
21033;DHT22;10675;47.976;7.824;2022-07-04T00:27:35;21.60;92.50
21033;DHT22;10675;47.976;7.824;2022-07-04T00:30:00;21.40;92.90
21033;DHT22;10675;47.976;7.824;2022-07-04T00:32:26;21.50;93.50
21033;DHT22;10675;47.976;7.824;2022-07-04T00:34:52;21.50;94.00
21033;DHT22;10675;47.976;7.824;2022-07-04T00:37:17;21.40;93.70
21033;DHT22;10675;47.976;7.824;2022-07-04T00:39:43;21.40;94.40
21033;DHT22;10675;47.976;7.824;2022-07-04T00:42:09;21.60;94.10
21033;DHT22;10675;47.976;7.824;2022-07-04T00:44:35;21.50;94.40
21033;DHT22;10675;47.976;7.824;2022-07-04T00:47:02;21.40;94.10
21033;DHT22;10675;47.976;7.824;2022-07-04T00:49:28;21.50;94.60
21033;DHT22;10675;47.976;7.824;2022-07-04T00:51:54;21.50;94.90
21033;DHT22;10675;47.976;7.824;2022-07-04T00:54:20;21.50;95.20
21033;DHT22;10675;47.976;7.824;2022-07-04T00:56:49;21.60;95.30
21033;DHT22;10675;47.976;7.824;2022-07-04T00:59:15;21.50;94.80
21033;DHT22;10675;47.976;7.824;2022-07-04T01:01:41;21.40;95.40
21033;DHT22;10675;47.976;7.824;2022-07-04T01:04:06;21.50;95.50
21033;DHT22;10675;47.976;7.824;2022-07-04T01:06:33;21.50;95.00
21033;DHT22;10675;47.976;7.824;2022-07-04T01:08:59;21.60;95.00
21033;DHT22;10675;47.976;7.824;2022-07-04T01:11:25;21.50;95.40
21033;DHT22;10675;47.976;7.824;2022-07-04T01:13:53;21.60;95.50
21033;DHT22;10675;47.976;7.824;2022-07-04T01:16:19;21.70;95.90
21033;DHT22;10675;47.976;7.824;2022-07-04T01:18:44;21.60;95.00
21033;DHT22;10675;47.976;7.824;2022-07-04T01:21:10;21.50;95.80
21033;DHT22;10675;47.976;7.824;2022-07-04T01:23:38;21.50;97.40
21033;DHT22;10675;47.976;7.824;2022-07-04T01:26:03;21.40;97.50
21033;DHT22;10675;47.976;7.824;2022-07-04T01:28:29;21.30;97.50
21033;DHT22;10675;47.976;7.824;2022-07-04T01:30:55;21.30;97.10
21033;DHT22;10675;47.976;7.824;2022-07-04T01:33:20;21.20;96.80
21033;DHT22;10675;47.976;7.824;2022-07-04T01:35:47;21.20;96.90
21033;DHT22;10675;47.976;7.824;2022-07-04T01:38:13;21.20;97.10
21033;DHT22;10675;47.976;7.824;2022-07-04T01:40:39;21.10;98.10
21033;DHT22;10675;47.976;7.824;2022-07-04T01:43:05;21.20;96.70
21033;DHT22;10675;47.976;7.824;2022-07-04T01:45:31;21.20;95.50
21033;DHT22;10675;47.976;7.824;2022-07-04T01:48:00;21.20;95.20
21033;DHT22;10675;47.976;7.824;2022-07-04T01:50:25;21.20;93.00
21033;DHT22;10675;47.976;7.824;2022-07-04T01:52:51;21.40;91.70
21033;DHT22;10675;47.976;7.824;2022-07-04T01:55:16;21.40;91.10
21033;DHT22;10675;47.976;7.824;2022-07-04T01:57:42;21.40;90.30
21033;DHT22;10675;47.976;7.824;2022-07-04T02:00:09;21.40;90.20
21033;DHT22;10675;47.976;7.824;2022-07-04T02:02:55;21.30;90.80
21033;DHT22;10675;47.976;7.824;2022-07-04T02:05:21;21.30;90.80
21033;DHT22;10675;47.976;7.824;2022-07-04T02:07:48;21.20;91.30
21033;DHT22;10675;47.976;7.824;2022-07-04T02:10:13;21.30;90.40
21033;DHT22;10675;47.976;7.824;2022-07-04T02:12:39;21.30;90.30
21033;DHT22;10675;47.976;7.824;2022-07-04T02:15:23;21.20;89.60
21033;DHT22;10675;47.976;7.824;2022-07-04T02:17:49;21.20;90.50
21033;DHT22;10675;47.976;7.824;2022-07-04T02:20:14;21.20;90.00
21033;DHT22;10675;47.976;7.824;2022-07-04T02:22:40;21.20;90.30
21033;DHT22;10675;47.976;7.824;2022-07-04T02:25:06;21.20;90.50
21033;DHT22;10675;47.976;7.824;2022-07-04T02:27:32;21.20;90.00
21033;DHT22;10675;47.976;7.824;2022-07-04T02:29:57;21.20;89.60
21033;DHT22;10675;47.976;7.824;2022-07-04T02:32:23;21.10;90.30
21033;DHT22;10675;47.976;7.824;2022-07-04T02:34:49;21.10;91.60
21033;DHT22;10675;47.976;7.824;2022-07-04T02:37:15;21.10;90.80
21033;DHT22;10675;47.976;7.824;2022-07-04T02:39:40;21.00;91.10
21033;DHT22;10675;47.976;7.824;2022-07-04T02:42:06;20.90;91.10
21033;DHT22;10675;47.976;7.824;2022-07-04T02:44:32;20.90;93.00
21033;DHT22;10675;47.976;7.824;2022-07-04T02:46:57;20.90;90.20
21033;DHT22;10675;47.976;7.824;2022-07-04T02:49:23;20.90;87.70
21033;DHT22;10675;47.976;7.824;2022-07-04T02:51:48;20.90;89.80
21033;DHT22;10675;47.976;7.824;2022-07-04T02:54:15;20.90;89.40
21033;DHT22;10675;47.976;7.824;2022-07-04T02:56:41;20.90;90.40
21033;DHT22;10675;47.976;7.824;2022-07-04T02:59:07;20.70;90.50
21033;DHT22;10675;47.976;7.824;2022-07-04T03:01:32;20.70;91.00
21033;DHT22;10675;47.976;7.824;2022-07-04T03:03:58;20.70;88.70
21033;DHT22;10675;47.976;7.824;2022-07-04T03:06:23;20.60;89.00
21033;DHT22;10675;47.976;7.824;2022-07-04T03:08:49;20.60;90.40
21033;DHT22;10675;47.976;7.824;2022-07-04T03:11:14;20.60;88.60
21033;DHT22;10675;47.976;7.824;2022-07-04T03:13:41;20.70;88.80
21033;DHT22;10675;47.976;7.824;2022-07-04T03:16:07;20.70;89.50
21033;DHT22;10675;47.976;7.824;2022-07-04T03:18:32;20.60;88.80
21033;DHT22;10675;47.976;7.824;2022-07-04T03:20:58;20.60;89.10
21033;DHT22;10675;47.976;7.824;2022-07-04T03:23:23;20.50;90.10
21033;DHT22;10675;47.976;7.824;2022-07-04T03:25:49;20.50;87.90
21033;DHT22;10675;47.976;7.824;2022-07-04T03:28:15;20.50;88.20
21033;DHT22;10675;47.976;7.824;2022-07-04T03:30:40;20.50;89.20
21033;DHT22;10675;47.976;7.824;2022-07-04T03:33:06;20.50;89.20
21033;DHT22;10675;47.976;7.824;2022-07-04T03:35:32;20.40;89.20
21033;DHT22;10675;47.976;7.824;2022-07-04T03:37:57;20.40;89.30
21033;DHT22;10675;47.976;7.824;2022-07-04T03:40:23;20.40;90.30
21033;DHT22;10675;47.976;7.824;2022-07-04T03:42:49;20.40;89.60
21033;DHT22;10675;47.976;7.824;2022-07-04T03:45:15;20.40;90.00
21033;DHT22;10675;47.976;7.824;2022-07-04T03:47:40;20.30;90.50
21033;DHT22;10675;47.976;7.824;2022-07-04T03:50:07;20.30;89.70
21033;DHT22;10675;47.976;7.824;2022-07-04T03:52:33;20.40;89.30
21033;DHT22;10675;47.976;7.824;2022-07-04T03:54:58;20.40;89.50
21033;DHT22;10675;47.976;7.824;2022-07-04T03:57:24;20.30;90.20
21033;DHT22;10675;47.976;7.824;2022-07-04T03:59:50;20.30;90.20
21033;DHT22;10675;47.976;7.824;2022-07-04T04:02:15;20.30;90.10
21033;DHT22;10675;47.976;7.824;2022-07-04T04:04:41;20.30;90.20
21033;DHT22;10675;47.976;7.824;2022-07-04T04:07:25;20.30;90.00
21033;DHT22;10675;47.976;7.824;2022-07-04T04:09:51;20.30;89.40
21033;DHT22;10675;47.976;7.824;2022-07-04T04:12:17;20.20;89.30
21033;DHT22;10675;47.976;7.824;2022-07-04T04:14:42;20.20;88.50
21033;DHT22;10675;47.976;7.824;2022-07-04T04:17:08;20.20;88.80
21033;DHT22;10675;47.976;7.824;2022-07-04T04:19:34;20.10;89.20
21033;DHT22;10675;47.976;7.824;2022-07-04T04:21:59;20.20;89.30
21033;DHT22;10675;47.976;7.824;2022-07-04T04:24:25;20.30;89.40
21033;DHT22;10675;47.976;7.824;2022-07-04T04:26:50;20.30;89.90
21033;DHT22;10675;47.976;7.824;2022-07-04T04:29:16;20.20;90.50
21033;DHT22;10675;47.976;7.824;2022-07-04T04:31:42;20.20;90.30
21033;DHT22;10675;47.976;7.824;2022-07-04T04:34:07;20.20;90.30
21033;DHT22;10675;47.976;7.824;2022-07-04T04:36:33;20.30;89.20
21033;DHT22;10675;47.976;7.824;2022-07-04T04:38:59;20.20;89.30
21033;DHT22;10675;47.976;7.824;2022-07-04T04:41:24;20.10;90.00
21033;DHT22;10675;47.976;7.824;2022-07-04T04:43:50;20.10;90.10
21033;DHT22;10675;47.976;7.824;2022-07-04T04:46:15;20.10;90.30
21033;DHT22;10675;47.976;7.824;2022-07-04T04:48:41;20.10;91.10
21033;DHT22;10675;47.976;7.824;2022-07-04T04:51:07;20.00;90.60
21033;DHT22;10675;47.976;7.824;2022-07-04T04:53:32;20.10;90.50
21033;DHT22;10675;47.976;7.824;2022-07-04T04:55:58;20.00;91.40
21033;DHT22;10675;47.976;7.824;2022-07-04T04:58:23;20.00;91.50
21033;DHT22;10675;47.976;7.824;2022-07-04T05:00:49;19.90;91.10
21033;DHT22;10675;47.976;7.824;2022-07-04T05:03:18;20.00;91.20
21033;DHT22;10675;47.976;7.824;2022-07-04T05:05:44;19.90;91.30
21033;DHT22;10675;47.976;7.824;2022-07-04T05:08:11;20.00;91.50
21033;DHT22;10675;47.976;7.824;2022-07-04T05:10:38;20.00;92.20
21033;DHT22;10675;47.976;7.824;2022-07-04T05:13:04;19.90;91.40
21033;DHT22;10675;47.976;7.824;2022-07-04T05:15:29;19.80;92.10
21033;DHT22;10675;47.976;7.824;2022-07-04T05:17:55;19.80;92.50
21033;DHT22;10675;47.976;7.824;2022-07-04T05:20:20;19.80;92.50
21033;DHT22;10675;47.976;7.824;2022-07-04T05:22:46;19.80;93.10
21033;DHT22;10675;47.976;7.824;2022-07-04T05:25:12;19.80;93.10
21033;DHT22;10675;47.976;7.824;2022-07-04T05:27:37;19.70;92.00
21033;DHT22;10675;47.976;7.824;2022-07-04T05:30:04;19.80;92.40
21033;DHT22;10675;47.976;7.824;2022-07-04T05:32:29;19.90;92.40
21033;DHT22;10675;47.976;7.824;2022-07-04T05:34:55;19.90;92.50
21033;DHT22;10675;47.976;7.824;2022-07-04T05:37:21;20.00;91.90
21033;DHT22;10675;47.976;7.824;2022-07-04T05:39:47;20.00;92.00
21033;DHT22;10675;47.976;7.824;2022-07-04T05:42:12;20.00;91.70
21033;DHT22;10675;47.976;7.824;2022-07-04T05:44:38;19.90;92.40
21033;DHT22;10675;47.976;7.824;2022-07-04T05:47:04;19.90;92.60
21033;DHT22;10675;47.976;7.824;2022-07-04T05:49:29;20.00;92.10
21033;DHT22;10675;47.976;7.824;2022-07-04T05:51:55;20.00;92.10
21033;DHT22;10675;47.976;7.824;2022-07-04T05:54:20;20.00;93.00
21033;DHT22;10675;47.976;7.824;2022-07-04T05:56:46;19.90;93.20
21033;DHT22;10675;47.976;7.824;2022-07-04T05:59:11;19.90;93.80
21033;DHT22;10675;47.976;7.824;2022-07-04T06:01:37;19.90;93.80
21033;DHT22;10675;47.976;7.824;2022-07-04T06:04:03;19.90;93.50
21033;DHT22;10675;47.976;7.824;2022-07-04T06:06:30;19.90;93.60
21033;DHT22;10675;47.976;7.824;2022-07-04T06:08:56;20.00;93.20
21033;DHT22;10675;47.976;7.824;2022-07-04T06:11:22;19.90;93.40
21033;DHT22;10675;47.976;7.824;2022-07-04T06:13:48;19.80;93.50
21033;DHT22;10675;47.976;7.824;2022-07-04T06:16:13;20.10;93.70
21033;DHT22;10675;47.976;7.824;2022-07-04T06:18:39;20.40;93.50
21033;DHT22;10675;47.976;7.824;2022-07-04T06:21:05;20.30;93.80
21033;DHT22;10675;47.976;7.824;2022-07-04T06:23:30;20.20;93.40
21033;DHT22;10675;47.976;7.824;2022-07-04T06:25:56;20.20;93.30
21033;DHT22;10675;47.976;7.824;2022-07-04T06:28:21;20.20;93.00
21033;DHT22;10675;47.976;7.824;2022-07-04T06:30:47;20.30;93.40
21033;DHT22;10675;47.976;7.824;2022-07-04T06:33:12;20.30;93.30
21033;DHT22;10675;47.976;7.824;2022-07-04T06:35:38;20.50;93.50
21033;DHT22;10675;47.976;7.824;2022-07-04T06:38:27;20.50;92.80
21033;DHT22;10675;47.976;7.824;2022-07-04T06:40:58;20.50;92.30
21033;DHT22;10675;47.976;7.824;2022-07-04T06:43:24;20.40;92.00
21033;DHT22;10675;47.976;7.824;2022-07-04T06:45:50;20.40;92.50
21033;DHT22;10675;47.976;7.824;2022-07-04T06:48:16;20.40;93.20
21033;DHT22;10675;47.976;7.824;2022-07-04T06:50:42;20.40;93.00
21033;DHT22;10675;47.976;7.824;2022-07-04T06:53:09;20.40;93.10
21033;DHT22;10675;47.976;7.824;2022-07-04T06:55:38;20.30;92.60
21033;DHT22;10675;47.976;7.824;2022-07-04T06:58:04;20.40;92.80
21033;DHT22;10675;47.976;7.824;2022-07-04T07:00:30;20.40;92.80
21033;DHT22;10675;47.976;7.824;2022-07-04T07:02:56;20.30;93.00
21033;DHT22;10675;47.976;7.824;2022-07-04T07:05:24;20.30;93.50
21033;DHT22;10675;47.976;7.824;2022-07-04T07:07:49;20.40;93.60
21033;DHT22;10675;47.976;7.824;2022-07-04T07:10:15;20.40;93.60
21033;DHT22;10675;47.976;7.824;2022-07-04T07:12:40;20.60;93.50
21033;DHT22;10675;47.976;7.824;2022-07-04T07:15:06;20.60;93.60
21033;DHT22;10675;47.976;7.824;2022-07-04T07:17:32;20.60;94.10
21033;DHT22;10675;47.976;7.824;2022-07-04T07:19:57;20.50;93.60
21033;DHT22;10675;47.976;7.824;2022-07-04T07:22:23;20.50;93.80
21033;DHT22;10675;47.976;7.824;2022-07-04T07:24:49;20.50;94.20
21033;DHT22;10675;47.976;7.824;2022-07-04T07:27:14;20.50;94.40
21033;DHT22;10675;47.976;7.824;2022-07-04T07:29:40;20.60;94.10
21033;DHT22;10675;47.976;7.824;2022-07-04T07:32:06;20.70;94.20
21033;DHT22;10675;47.976;7.824;2022-07-04T07:34:32;20.80;94.70
21033;DHT22;10675;47.976;7.824;2022-07-04T07:36:58;20.80;94.20
21033;DHT22;10675;47.976;7.824;2022-07-04T07:39:23;20.70;94.80
21033;DHT22;10675;47.976;7.824;2022-07-04T07:41:49;20.90;94.60
21033;DHT22;10675;47.976;7.824;2022-07-04T07:44:14;21.00;93.60
21033;DHT22;10675;47.976;7.824;2022-07-04T07:46:40;21.20;93.40
21033;DHT22;10675;47.976;7.824;2022-07-04T07:49:06;21.50;92.70
21033;DHT22;10675;47.976;7.824;2022-07-04T07:51:32;21.40;92.40
21033;DHT22;10675;47.976;7.824;2022-07-04T07:53:58;21.30;92.30
21033;DHT22;10675;47.976;7.824;2022-07-04T07:56:23;21.40;92.60
21033;DHT22;10675;47.976;7.824;2022-07-04T07:58:49;21.50;92.20
21033;DHT22;10675;47.976;7.824;2022-07-04T08:01:15;21.20;91.90
21033;DHT22;10675;47.976;7.824;2022-07-04T08:03:41;21.20;91.90
21033;DHT22;10675;47.976;7.824;2022-07-04T08:06:25;21.20;92.00
21033;DHT22;10675;47.976;7.824;2022-07-04T08:08:51;21.70;92.00
21033;DHT22;10675;47.976;7.824;2022-07-04T08:11:17;22.10;91.30
21033;DHT22;10675;47.976;7.824;2022-07-04T08:13:42;22.40;90.70
21033;DHT22;10675;47.976;7.824;2022-07-04T08:16:09;22.30;90.60
21033;DHT22;10675;47.976;7.824;2022-07-04T08:18:35;22.20;88.40
21033;DHT22;10675;47.976;7.824;2022-07-04T08:21:00;22.50;87.40
21033;DHT22;10675;47.976;7.824;2022-07-04T08:23:28;22.70;87.10
21033;DHT22;10675;47.976;7.824;2022-07-04T08:25:54;22.50;86.70
21033;DHT22;10675;47.976;7.824;2022-07-04T08:28:19;22.50;87.30
21033;DHT22;10675;47.976;7.824;2022-07-04T08:30:45;22.80;87.10
21033;DHT22;10675;47.976;7.824;2022-07-04T08:33:11;22.60;86.10
21033;DHT22;10675;47.976;7.824;2022-07-04T08:35:36;22.60;86.20
21033;DHT22;10675;47.976;7.824;2022-07-04T08:38:02;22.80;86.00
21033;DHT22;10675;47.976;7.824;2022-07-04T08:40:29;22.90;86.30
21033;DHT22;10675;47.976;7.824;2022-07-04T08:42:55;23.00;85.80
21033;DHT22;10675;47.976;7.824;2022-07-04T08:45:30;23.30;85.20
21033;DHT22;10675;47.976;7.824;2022-07-04T08:48:03;23.60;84.60
21033;DHT22;10675;47.976;7.824;2022-07-04T08:50:31;23.70;83.70
21033;DHT22;10675;47.976;7.824;2022-07-04T08:53:00;23.60;84.30
21033;DHT22;10675;47.976;7.824;2022-07-04T08:55:28;23.80;83.90
21033;DHT22;10675;47.976;7.824;2022-07-04T08:58:13;23.90;83.70
21033;DHT22;10675;47.976;7.824;2022-07-04T09:00:59;24.10;81.60
21033;DHT22;10675;47.976;7.824;2022-07-04T09:03:26;24.10;81.70
21033;DHT22;10675;47.976;7.824;2022-07-04T09:05:52;24.10;82.70
21033;DHT22;10675;47.976;7.824;2022-07-04T09:08:18;24.40;81.70
21033;DHT22;10675;47.976;7.824;2022-07-04T09:10:44;24.50;80.20
21033;DHT22;10675;47.976;7.824;2022-07-04T09:13:13;24.60;80.60
21033;DHT22;10675;47.976;7.824;2022-07-04T09:15:41;24.70;79.40
21033;DHT22;10675;47.976;7.824;2022-07-04T09:18:29;24.60;79.70
21033;DHT22;10675;47.976;7.824;2022-07-04T09:20:57;24.80;80.30
21033;DHT22;10675;47.976;7.824;2022-07-04T09:23:35;24.50;79.50
21033;DHT22;10675;47.976;7.824;2022-07-04T09:26:12;24.50;79.40
21033;DHT22;10675;47.976;7.824;2022-07-04T09:28:43;24.80;79.60
21033;DHT22;10675;47.976;7.824;2022-07-04T09:31:14;24.60;78.10
21033;DHT22;10675;47.976;7.824;2022-07-04T09:33:54;24.50;77.90
21033;DHT22;10675;47.976;7.824;2022-07-04T09:36:32;24.60;77.80
21033;DHT22;10675;47.976;7.824;2022-07-04T09:39:12;24.50;78.40
21033;DHT22;10675;47.976;7.824;2022-07-04T09:41:59;24.90;78.00
21033;DHT22;10675;47.976;7.824;2022-07-04T09:44:43;25.10;77.80
21033;DHT22;10675;47.976;7.824;2022-07-04T09:47:25;24.80;78.50
21033;DHT22;10675;47.976;7.824;2022-07-04T09:50:08;24.80;79.40
21033;DHT22;10675;47.976;7.824;2022-07-04T09:55:36;25.00;80.50
21033;DHT22;10675;47.976;7.824;2022-07-04T09:58:07;24.90;80.90
21033;DHT22;10675;47.976;7.824;2022-07-04T10:00:35;24.60;80.20
21033;DHT22;10675;47.976;7.824;2022-07-04T10:03:22;24.50;81.00
21033;DHT22;10675;47.976;7.824;2022-07-04T10:08:30;24.20;80.30
21033;DHT22;10675;47.976;7.824;2022-07-04T10:11:00;24.40;79.80
21033;DHT22;10675;47.976;7.824;2022-07-04T10:13:26;24.60;78.70
21033;DHT22;10675;47.976;7.824;2022-07-04T10:15:52;24.80;79.10
21033;DHT22;10675;47.976;7.824;2022-07-04T10:18:20;25.20;77.80
21033;DHT22;10675;47.976;7.824;2022-07-04T10:20:46;25.00;78.80
21033;DHT22;10675;47.976;7.824;2022-07-04T10:23:12;25.00;78.00
21033;DHT22;10675;47.976;7.824;2022-07-04T10:25:38;25.10;78.20
21033;DHT22;10675;47.976;7.824;2022-07-04T10:28:05;25.30;78.60
21033;DHT22;10675;47.976;7.824;2022-07-04T10:30:35;25.20;77.10
21033;DHT22;10675;47.976;7.824;2022-07-04T10:33:07;25.40;77.40
21033;DHT22;10675;47.976;7.824;2022-07-04T10:38:34;25.80;75.90
21033;DHT22;10675;47.976;7.824;2022-07-04T10:41:05;25.90;76.00
21033;DHT22;10675;47.976;7.824;2022-07-04T10:48:35;25.80;76.50
21033;DHT22;10675;47.976;7.824;2022-07-04T10:51:04;25.90;74.40
21033;DHT22;10675;47.976;7.824;2022-07-04T10:53:31;25.90;75.20
21033;DHT22;10675;47.976;7.824;2022-07-04T10:58:51;26.00;74.00
21033;DHT22;10675;47.976;7.824;2022-07-04T11:01:18;26.20;73.50
21033;DHT22;10675;47.976;7.824;2022-07-04T11:03:48;26.30;72.80
21033;DHT22;10675;47.976;7.824;2022-07-04T11:09:23;26.60;72.70
21033;DHT22;10675;47.976;7.824;2022-07-04T11:12:03;26.70;72.50
21033;DHT22;10675;47.976;7.824;2022-07-04T11:14:34;26.40;73.60
21033;DHT22;10675;47.976;7.824;2022-07-04T11:17:01;26.40;73.40
21033;DHT22;10675;47.976;7.824;2022-07-04T11:19:27;26.30;73.40
21033;DHT22;10675;47.976;7.824;2022-07-04T11:21:56;26.30;74.50
21033;DHT22;10675;47.976;7.824;2022-07-04T11:24:24;26.30;71.80
21033;DHT22;10675;47.976;7.824;2022-07-04T11:26:50;26.10;72.10
21033;DHT22;10675;47.976;7.824;2022-07-04T11:29:16;26.60;72.70
21033;DHT22;10675;47.976;7.824;2022-07-04T11:31:43;26.80;73.30
21033;DHT22;10675;47.976;7.824;2022-07-04T11:34:09;26.70;69.70
21033;DHT22;10675;47.976;7.824;2022-07-04T11:36:35;26.40;72.30
21033;DHT22;10675;47.976;7.824;2022-07-04T11:39:05;26.40;72.50
21033;DHT22;10675;47.976;7.824;2022-07-04T11:41:36;27.00;73.20
21033;DHT22;10675;47.976;7.824;2022-07-04T11:44:32;27.30;70.00
21033;DHT22;10675;47.976;7.824;2022-07-04T11:47:19;27.50;68.70
21033;DHT22;10675;47.976;7.824;2022-07-04T11:49:50;27.40;69.80
21033;DHT22;10675;47.976;7.824;2022-07-04T11:52:30;27.30;67.60
21033;DHT22;10675;47.976;7.824;2022-07-04T11:54:56;26.90;68.70
21033;DHT22;10675;47.976;7.824;2022-07-04T11:57:28;26.60;70.10
21033;DHT22;10675;47.976;7.824;2022-07-04T12:02:21;26.80;70.50
21033;DHT22;10675;47.976;7.824;2022-07-04T12:04:47;26.70;71.60
21033;DHT22;10675;47.976;7.824;2022-07-04T12:07:14;26.70;72.90
21033;DHT22;10675;47.976;7.824;2022-07-04T12:09:41;26.70;71.30
21033;DHT22;10675;47.976;7.824;2022-07-04T12:12:07;26.90;70.20
21033;DHT22;10675;47.976;7.824;2022-07-04T12:14:33;27.10;71.50
21033;DHT22;10675;47.976;7.824;2022-07-04T12:19:36;26.80;68.90
21033;DHT22;10675;47.976;7.824;2022-07-04T12:22:02;26.60;69.60
21033;DHT22;10675;47.976;7.824;2022-07-04T12:24:36;26.40;70.80
21033;DHT22;10675;47.976;7.824;2022-07-04T12:27:04;26.30;70.70
21033;DHT22;10675;47.976;7.824;2022-07-04T12:29:29;26.50;69.40
21033;DHT22;10675;47.976;7.824;2022-07-04T12:31:55;26.20;70.20
21033;DHT22;10675;47.976;7.824;2022-07-04T12:34:20;26.20;71.00
21033;DHT22;10675;47.976;7.824;2022-07-04T12:36:50;26.20;69.40
21033;DHT22;10675;47.976;7.824;2022-07-04T12:39:33;26.20;70.00
21033;DHT22;10675;47.976;7.824;2022-07-04T12:42:09;26.10;69.90
21033;DHT22;10675;47.976;7.824;2022-07-04T12:44:36;26.20;70.80
21033;DHT22;10675;47.976;7.824;2022-07-04T12:47:03;26.20;69.50
21033;DHT22;10675;47.976;7.824;2022-07-04T12:49:29;26.40;68.80
21033;DHT22;10675;47.976;7.824;2022-07-04T12:52:10;25.70;68.30
21033;DHT22;10675;47.976;7.824;2022-07-04T12:54:37;26.10;69.60
21033;DHT22;10675;47.976;7.824;2022-07-04T12:57:16;26.10;67.80
21033;DHT22;10675;47.976;7.824;2022-07-04T12:59:44;25.90;69.90
21033;DHT22;10675;47.976;7.824;2022-07-04T13:02:10;26.00;70.00
21033;DHT22;10675;47.976;7.824;2022-07-04T13:04:37;26.20;70.30
21033;DHT22;10675;47.976;7.824;2022-07-04T13:07:17;26.40;69.00
21033;DHT22;10675;47.976;7.824;2022-07-04T13:09:44;26.60;68.70
21033;DHT22;10675;47.976;7.824;2022-07-04T13:12:11;26.70;68.40
21033;DHT22;10675;47.976;7.824;2022-07-04T13:14:56;27.20;67.80
21033;DHT22;10675;47.976;7.824;2022-07-04T13:17:22;27.40;67.80
21033;DHT22;10675;47.976;7.824;2022-07-04T13:19:49;26.90;67.90
21033;DHT22;10675;47.976;7.824;2022-07-04T13:22:17;27.00;70.00
21033;DHT22;10675;47.976;7.824;2022-07-04T13:24:43;27.30;68.70
21033;DHT22;10675;47.976;7.824;2022-07-04T13:27:08;27.90;67.50
21033;DHT22;10675;47.976;7.824;2022-07-04T13:29:34;28.60;63.50
21033;DHT22;10675;47.976;7.824;2022-07-04T13:31:59;29.00;62.10
21033;DHT22;10675;47.976;7.824;2022-07-04T13:34:25;28.60;61.10
21033;DHT22;10675;47.976;7.824;2022-07-04T13:36:50;28.70;64.40
21033;DHT22;10675;47.976;7.824;2022-07-04T13:39:17;29.10;62.00
21033;DHT22;10675;47.976;7.824;2022-07-04T13:41:42;29.40;61.70
21033;DHT22;10675;47.976;7.824;2022-07-04T13:44:08;29.10;59.60
21033;DHT22;10675;47.976;7.824;2022-07-04T13:46:34;28.60;60.40
21033;DHT22;10675;47.976;7.824;2022-07-04T13:49:07;28.60;61.10
21033;DHT22;10675;47.976;7.824;2022-07-04T13:51:32;28.50;61.30
21033;DHT22;10675;47.976;7.824;2022-07-04T13:53:58;28.50;60.40
21033;DHT22;10675;47.976;7.824;2022-07-04T13:56:23;28.20;61.00
21033;DHT22;10675;47.976;7.824;2022-07-04T13:58:49;28.00;62.80
21033;DHT22;10675;47.976;7.824;2022-07-04T14:01:15;27.90;61.80
21033;DHT22;10675;47.976;7.824;2022-07-04T14:03:43;27.70;62.30
21033;DHT22;10675;47.976;7.824;2022-07-04T14:06:09;27.50;63.40
21033;DHT22;10675;47.976;7.824;2022-07-04T14:08:35;27.50;63.00
21033;DHT22;10675;47.976;7.824;2022-07-04T14:11:01;27.40;64.70
21033;DHT22;10675;47.976;7.824;2022-07-04T14:13:27;27.30;62.60
21033;DHT22;10675;47.976;7.824;2022-07-04T14:15:52;27.30;62.50
21033;DHT22;10675;47.976;7.824;2022-07-04T14:18:18;27.30;63.40
21033;DHT22;10675;47.976;7.824;2022-07-04T14:20:44;27.50;63.50
21033;DHT22;10675;47.976;7.824;2022-07-04T14:23:11;27.60;62.90
21033;DHT22;10675;47.976;7.824;2022-07-04T14:25:37;27.40;64.00
21033;DHT22;10675;47.976;7.824;2022-07-04T14:28:03;27.20;63.20
21033;DHT22;10675;47.976;7.824;2022-07-04T14:30:29;26.90;64.70
21033;DHT22;10675;47.976;7.824;2022-07-04T14:32:54;26.80;64.70
21033;DHT22;10675;47.976;7.824;2022-07-04T14:35:20;26.60;64.80
21033;DHT22;10675;47.976;7.824;2022-07-04T14:37:45;26.70;65.60
21033;DHT22;10675;47.976;7.824;2022-07-04T14:40:11;26.50;64.50
21033;DHT22;10675;47.976;7.824;2022-07-04T14:42:37;26.60;65.40
21033;DHT22;10675;47.976;7.824;2022-07-04T14:45:03;26.80;65.80
21033;DHT22;10675;47.976;7.824;2022-07-04T14:47:29;26.90;66.60
21033;DHT22;10675;47.976;7.824;2022-07-04T14:49:57;26.80;67.00
21033;DHT22;10675;47.976;7.824;2022-07-04T14:52:22;26.70;66.90
21033;DHT22;10675;47.976;7.824;2022-07-04T14:54:48;26.70;66.00
21033;DHT22;10675;47.976;7.824;2022-07-04T14:57:14;26.60;64.60
21033;DHT22;10675;47.976;7.824;2022-07-04T14:59:40;26.70;66.00
21033;DHT22;10675;47.976;7.824;2022-07-04T15:02:06;26.70;66.40
21033;DHT22;10675;47.976;7.824;2022-07-04T15:04:32;26.40;65.10
21033;DHT22;10675;47.976;7.824;2022-07-04T15:06:58;26.20;65.50
21033;DHT22;10675;47.976;7.824;2022-07-04T15:09:23;26.20;66.40
21033;DHT22;10675;47.976;7.824;2022-07-04T15:11:49;26.10;66.80
21033;DHT22;10675;47.976;7.824;2022-07-04T15:14:17;25.90;67.10
21033;DHT22;10675;47.976;7.824;2022-07-04T15:16:42;25.90;66.50
21033;DHT22;10675;47.976;7.824;2022-07-04T15:19:09;25.90;66.60
21033;DHT22;10675;47.976;7.824;2022-07-04T15:21:34;25.90;66.70
21033;DHT22;10675;47.976;7.824;2022-07-04T15:24:18;26.00;66.30
21033;DHT22;10675;47.976;7.824;2022-07-04T15:26:48;26.00;66.20
21033;DHT22;10675;47.976;7.824;2022-07-04T15:29:15;25.90;66.00
21033;DHT22;10675;47.976;7.824;2022-07-04T15:31:42;25.80;67.40
21033;DHT22;10675;47.976;7.824;2022-07-04T15:34:08;25.80;68.00
21033;DHT22;10675;47.976;7.824;2022-07-04T15:36:34;25.80;68.80
21033;DHT22;10675;47.976;7.824;2022-07-04T15:39:05;25.80;68.90
21033;DHT22;10675;47.976;7.824;2022-07-04T15:41:32;25.60;67.60
21033;DHT22;10675;47.976;7.824;2022-07-04T15:43:58;25.40;68.80
21033;DHT22;10675;47.976;7.824;2022-07-04T15:46:23;25.40;68.90
21033;DHT22;10675;47.976;7.824;2022-07-04T15:48:49;25.40;69.90
21033;DHT22;10675;47.976;7.824;2022-07-04T15:51:14;25.40;69.60
21033;DHT22;10675;47.976;7.824;2022-07-04T15:53:40;25.50;69.00
21033;DHT22;10675;47.976;7.824;2022-07-04T15:56:05;25.40;69.50